Time;durP1;ratioP1;P1;durP2;ratioP2;P2;SDS_P1;SDS_P2;PMS_P1;PMS_P2;Temp;Humidity;BMP_temperature;BMP_pressure;BME280_temperature;BME280_humidity;BME280_pressure;Samples;Min_cycle;Max_cycle;Signal;HPM_P1;HPM_P2
2022/03/23 00:01:07;;;;;;;8.90;4.50;;;;;;;3.75;58.88;101333.19;5149320;27;20274;-28
2022/03/23 00:03:34;;;;;;;11.35;4.80;;;;;;;3.37;59.57;101311.16;5149324;27;20023;-29
2022/03/23 00:06:03;;;;;;;10.32;4.50;;;;;;;3.60;59.67;101328.34;5130624;27;20034;-32
2022/03/23 00:08:29;;;;;;;11.75;5.05;;;;;;;3.45;59.32;101313.94;5149181;27;20027;-33
2022/03/23 00:10:54;;;;;;;12.43;5.03;;;;;;;3.16;60.37;101308.69;5130180;27;20023;-33
2022/03/23 00:13:20;;;;;;;11.30;5.28;;;;;;;3.12;60.76;101313.41;5148848;27;20027;-31
2022/03/23 00:15:47;;;;;;;10.43;4.75;;;;;;;3.35;59.85;101329.78;5149087;27;20019;-28
2022/03/23 00:18:13;;;;;;;11.95;5.10;;;;;;;3.36;60.42;101320.91;5130677;27;20118;-29
2022/03/23 00:20:39;;;;;;;10.45;5.15;;;;;;;3.36;59.73;101326.16;5130558;27;20110;-31
2022/03/23 00:23:05;;;;;;;9.95;5.13;;;;;;;3.38;59.87;101324.22;5131295;27;20027;-37
2022/03/23 00:25:31;;;;;;;11.80;5.20;;;;;;;2.96;60.43;101318.41;5153371;27;20027;-28
2022/03/23 00:27:56;;;;;;;12.00;5.40;;;;;;;2.92;61.10;101323.16;5134505;27;20109;-29
2022/03/23 00:30:22;;;;;;;10.68;5.00;;;;;;;2.87;60.86;101319.25;5153633;27;20035;-32
2022/03/23 00:32:47;;;;;;;10.77;5.53;;;;;;;2.82;61.11;101311.78;5130628;27;20103;-29
2022/03/23 00:35:13;;;;;;;12.52;5.55;;;;;;;2.72;61.43;101310.94;5132287;27;20031;-29
2022/03/23 00:37:39;;;;;;;12.80;6.25;;;;;;;2.69;61.70;101305.91;5132588;27;20027;-29
2022/03/23 00:40:05;;;;;;;10.82;5.80;;;;;;;2.65;61.97;101315.88;5132374;27;20031;-36
2022/03/23 00:42:30;;;;;;;10.93;5.20;;;;;;;2.68;61.25;101296.38;5130468;27;20031;-30
2022/03/23 00:44:57;;;;;;;11.20;6.28;;;;;;;2.67;61.72;101306.06;5131889;27;20019;-31
2022/03/23 00:47:23;;;;;;;14.30;6.13;;;;;;;2.50;61.89;101306.72;5132123;27;20027;-30
2022/03/23 00:49:48;;;;;;;11.10;6.35;;;;;;;2.42;62.55;101299.50;5132170;27;20380;-28
2022/03/23 00:52:14;;;;;;;10.43;6.20;;;;;;;2.29;62.48;101309.44;5130464;27;20023;-29
2022/03/23 00:54:39;;;;;;;16.00;6.57;;;;;;;2.18;63.42;101307.75;5130545;27;20653;-28
2022/03/23 00:57:06;;;;;;;12.15;7.40;;;;;;;1.91;63.83;101287.28;5131500;27;20042;-29
2022/03/23 00:59:32;;;;;;;12.27;6.82;;;;;;;1.91;64.30;101310.97;5130719;27;20065;-30
2022/03/23 01:01:58;;;;;;;15.27;6.97;;;;;;;2.05;63.44;101304.53;5130667;27;20035;-29
2022/03/23 01:04:24;;;;;;;12.13;7.22;;;;;;;2.00;63.53;101305.75;5130471;27;20063;-29
2022/03/23 01:06:52;;;;;;;17.88;7.43;;;;;;;2.11;63.67;101299.56;5130177;27;20071;-29
2022/03/23 01:09:22;;;;;;;;;;;;;;;2.20;62.62;101305.81;5130627;27;20087;-29
2022/03/23 01:11:48;;;;;;;11.07;6.60;;;;;;;1.93;62.75;101293.25;5131854;27;20030;-30
2022/03/23 01:14:14;;;;;;;12.85;7.28;;;;;;;1.88;62.96;101283.13;5130090;27;20059;-30
2022/03/23 01:16:40;;;;;;;13.82;6.85;;;;;;;2.15;62.19;101276.44;5131566;27;20051;-29
2022/03/23 01:19:06;;;;;;;13.73;6.93;;;;;;;2.17;61.68;101295.56;5129853;27;20062;-32
2022/03/23 01:21:32;;;;;;;13.18;6.70;;;;;;;2.01;62.57;101299.50;5131545;27;20023;-30
2022/03/23 01:23:57;;;;;;;12.98;6.63;;;;;;;1.97;62.85;101292.84;5129556;27;20054;-31
2022/03/23 01:26:23;;;;;;;10.90;6.18;;;;;;;1.93;62.26;101299.34;5131498;27;20038;-34
2022/03/23 01:28:48;;;;;;;11.02;6.40;;;;;;;1.85;62.81;101296.53;5131227;27;20124;-29
2022/03/23 01:31:14;;;;;;;11.13;6.65;;;;;;;1.85;63.19;101291.28;5131266;27;20538;-30
2022/03/23 01:33:39;;;;;;;15.32;6.25;;;;;;;1.45;63.60;101273.66;5129648;27;20217;-28
2022/03/23 01:36:05;;;;;;;11.05;5.90;;;;;;;1.48;64.53;101299.66;5130085;27;20038;-29
2022/03/23 01:38:30;;;;;;;12.77;6.10;;;;;;;1.40;64.38;101307.38;5129642;27;20420;-31
2022/03/23 01:40:55;;;;;;;10.65;6.20;;;;;;;1.55;62.89;101290.31;5131037;27;20106;-29
2022/03/23 01:43:21;;;;;;;13.30;6.50;;;;;;;1.59;63.63;101302.25;5131179;27;20057;-38
2022/03/23 01:45:47;;;;;;;11.68;6.40;;;;;;;1.44;62.37;101289.53;5130905;27;20031;-32
2022/03/23 01:48:12;;;;;;;12.57;6.78;;;;;;;1.55;62.80;101311.34;5130887;27;20031;-33
2022/03/23 01:50:37;;;;;;;11.07;6.15;;;;;;;1.34;63.46;101292.09;5129380;27;20096;-29
2022/03/23 01:53:03;;;;;;;10.70;5.88;;;;;;;1.49;63.95;101316.25;5130383;27;20037;-31
2022/03/23 01:55:29;;;;;;;12.07;6.00;;;;;;;1.69;62.18;101318.03;5130578;27;20448;-31
2022/03/23 01:57:54;;;;;;;13.63;7.03;;;;;;;1.69;61.74;101296.19;5130903;27;20407;-29
2022/03/23 02:00:21;;;;;;;12.80;5.65;;;;;;;1.75;62.18;101316.69;5130931;27;20891;-28
2022/03/23 02:02:47;;;;;;;11.10;6.30;;;;;;;1.64;61.81;101298.38;5129163;27;20031;-34
2022/03/23 02:05:14;;;;;;;13.20;5.78;;;;;;;1.77;62.76;101309.50;5129312;27;20031;-32
2022/03/23 02:07:39;;;;;;;11.90;5.97;;;;;;;1.78;62.33;101311.19;5129051;27;20448;-30
2022/03/23 02:10:06;;;;;;;13.88;6.15;;;;;;;1.81;62.84;101309.09;5130357;27;20092;-29
2022/03/23 02:12:32;;;;;;;12.45;5.95;;;;;;;1.87;62.52;101318.28;5130639;27;20054;-31
2022/03/23 02:15:00;;;;;;;12.50;6.50;;;;;;;1.67;63.05;101319.16;5129962;27;20502;-34
2022/03/23 02:17:26;;;;;;;10.73;6.13;;;;;;;1.73;62.98;101318.63;5129404;27;20364;-29
2022/03/23 02:19:52;;;;;;;12.77;6.20;;;;;;;1.62;63.51;101306.41;5130481;27;20111;-29
2022/03/23 02:22:18;;;;;;;13.40;5.95;;;;;;;1.55;63.96;101305.22;5128859;27;20805;-32
2022/03/23 02:24:46;;;;;;;13.55;6.70;;;;;;;1.36;64.97;101290.19;5129959;27;20031;-29
2022/03/23 02:27:12;;;;;;;15.40;6.72;;;;;;;1.40;65.15;101312.63;5128947;27;20031;-28
2022/03/23 02:29:38;;;;;;;14.70;7.47;;;;;;;1.30;65.31;101314.34;5128649;27;20034;-30
2022/03/23 02:32:05;;;;;;;10.68;6.13;;;;;;;1.13;65.26;101295.56;5131704;27;20051;-33
2022/03/23 02:34:30;;;;;;;12.27;6.47;;;;;;;1.32;65.13;101288.78;5131972;27;20031;-29
2022/03/23 02:36:57;;;;;;;14.13;6.20;;;;;;;1.40;65.05;101317.88;5150197;27;20505;-29
2022/03/23 02:39:22;;;;;;;12.90;6.38;;;;;;;1.48;65.17;101320.69;5132019;27;20114;-33
2022/03/23 02:41:48;;;;;;;15.57;6.60;;;;;;;1.27;65.97;101314.59;5150779;27;20110;-29
2022/03/23 02:44:17;;;;;;;11.77;6.28;;;;;;;1.24;64.99;101296.47;5132085;27;20029;-30
2022/03/23 02:46:43;;;;;;;14.40;6.13;;;;;;;1.11;66.04;101284.34;5131582;27;20146;-31
2022/03/23 02:49:09;;;;;;;11.23;6.30;;;;;;;1.17;65.91;101310.13;5150138;27;20105;-30
2022/03/23 02:51:35;;;;;;;13.13;6.13;;;;;;;1.08;66.49;101308.22;5131287;27;20391;-29
2022/03/23 03:01:52;;;;;;;10.48;6.22;;;;;;;1.14;66.48;101318.22;5150479;27;20142;-32
2022/03/23 03:03:26;;;;;;;15.00;6.63;;;;;;;0.96;66.30;101311.88;5150337;27;20066;-31
2022/03/23 03:05:51;;;;;;;11.50;6.05;;;;;;;1.00;65.98;101302.78;5150201;27;20034;-29
2022/03/23 03:11:01;;;;;;;12.77;6.70;;;;;;;1.12;64.93;101293.88;5150058;27;20058;-28
2022/03/23 03:13:28;;;;;;;13.00;5.72;;;;;;;1.14;65.53;101306.91;5150332;27;20026;-31
2022/03/23 03:15:53;;;;;;;11.20;5.70;;;;;;;1.18;65.09;101314.38;5150032;27;20083;-30
2022/03/23 03:18:19;;;;;;;14.40;6.97;;;;;;;1.12;65.08;101298.31;5149932;27;20038;-32
2022/03/23 03:20:45;;;;;;;12.25;5.80;;;;;;;1.11;65.18;101297.47;5149724;27;20031;-32
2022/03/23 03:23:11;;;;;;;12.50;6.55;;;;;;;1.11;65.32;101297.47;5149721;27;20027;-29
2022/03/23 03:25:36;;;;;;;16.25;6.75;;;;;;;1.09;65.80;101314.34;5131265;27;20035;-29
2022/03/23 03:28:02;;;;;;;16.25;6.20;;;;;;;1.03;65.62;101315.66;5149863;27;20455;-34
2022/03/23 03:30:28;;;;;;;13.40;5.93;;;;;;;0.93;66.08;101314.75;5149664;27;20097;-29
2022/03/23 03:32:53;;;;;;;13.23;5.80;;;;;;;1.03;64.64;101323.56;5149378;27;20049;-29
2022/03/23 03:35:19;;;;;;;20.67;10.75;;;;;;;1.03;65.04;101328.81;5149371;27;20073;-31
2022/03/23 03:37:44;;;;;;;29.23;14.60;;;;;;;1.32;64.11;101315.88;5150091;27;20492;-31
2022/03/23 03:40:10;;;;;;;31.27;13.30;;;;;;;1.00;64.69;101308.03;5149869;27;20050;-31
2022/03/23 03:42:37;;;;;;;12.57;6.63;;;;;;;0.72;66.06;101294.53;5149529;27;20069;-29
2022/03/23 03:45:08;;;;;;;11.40;6.22;;;;;;;0.64;65.88;101304.00;5130766;27;20044;-29
2022/03/23 03:47:33;;;;;;;16.13;6.93;;;;;;;0.51;66.24;101298.88;5149450;27;20037;-32
2022/03/23 03:49:59;;;;;;;14.18;6.10;;;;;;;0.70;66.41;101303.50;5149293;27;20437;-34
2022/03/23 03:52:24;;;;;;;10.48;5.25;;;;;;;0.58;66.61;101311.41;5149465;27;20030;-31
2022/03/23 03:54:50;;;;;;;12.52;6.05;;;;;;;0.64;67.25;101317.13;5149271;27;20054;-35
2022/03/23 03:57:15;;;;;;;13.82;6.15;;;;;;;0.67;67.10;101309.00;5149181;27;20030;-31
2022/03/23 03:59:41;;;;;;;16.45;6.38;;;;;;;0.34;67.41;101315.97;5149337;27;20022;-34
2022/03/23 04:02:06;;;;;;;12.93;6.22;;;;;;;0.29;67.18;101315.53;5149522;27;20030;-32
2022/03/23 04:04:32;;;;;;;10.48;5.93;;;;;;;0.04;68.43;101300.84;5149028;27;20027;-28
2022/03/23 04:06:57;;;;;;;13.20;6.88;;;;;;;0.17;68.76;101317.31;5149369;27;20034;-32
2022/03/23 04:09:23;;;;;;;12.73;6.00;;;;;;;0.24;67.85;101323.75;5149275;27;20050;-30
2022/03/23 04:11:48;;;;;;;14.02;5.97;;;;;;;0.22;68.37;101303.84;5149287;27;20087;-28
2022/03/23 04:14:15;;;;;;;17.17;7.45;;;;;;;0.43;67.33;101327.53;5149122;27;20023;-31
2022/03/23 04:16:41;;;;;;;17.00;7.97;;;;;;;0.40;67.28;101329.44;5149302;27;20035;-29
2022/03/23 04:19:06;;;;;;;12.95;6.80;;;;;;;0.42;67.08;101336.38;5148813;27;20461;-28
2022/03/23 04:21:35;;;;;;;14.25;6.32;;;;;;;0.50;67.15;101326.09;5149362;27;20455;-29
2022/03/23 04:24:00;;;;;;;13.27;6.00;;;;;;;0.63;66.02;101334.66;5130647;27;20031;-33
2022/03/23 04:26:26;;;;;;;10.95;5.50;;;;;;;0.60;65.89;101338.38;5149163;27;20420;-30
2022/03/23 04:28:51;;;;;;;20.98;7.20;;;;;;;0.68;65.87;101337.75;5148924;27;20026;-28
2022/03/23 04:31:17;;;;;;;13.50;6.22;;;;;;;0.71;65.67;101327.00;5148609;27;20035;-33
2022/03/23 04:33:43;;;;;;;12.13;6.15;;;;;;;0.66;65.17;101281.09;5129510;27;20043;-29
2022/03/23 04:36:09;;;;;;;28.63;9.70;;;;;;;0.95;65.07;101324.16;5148184;27;20129;-29
2022/03/23 04:38:35;;;;;;;33.10;11.32;;;;;;;0.90;64.40;101336.00;5149070;27;20026;-30
2022/03/23 04:41:02;;;;;;;31.90;10.70;;;;;;;1.06;64.54;101331.16;5130085;27;20034;-30
2022/03/23 04:43:27;;;;;;;33.97;10.32;;;;;;;1.25;63.69;101325.25;5148988;27;20066;-28
2022/03/23 04:45:53;;;;;;;27.25;8.65;;;;;;;1.50;62.75;101324.03;5113111;27;20058;-29
2022/03/23 04:48:19;;;;;;;24.25;8.80;;;;;;;1.29;62.96;101294.28;5148597;27;20027;-29
2022/03/23 04:50:46;;;;;;;33.75;10.63;;;;;;;1.64;61.72;101319.41;5148902;27;20113;-29
2022/03/23 04:53:12;;;;;;;38.70;11.47;;;;;;;1.80;61.76;101315.34;5148374;27;20440;-30
2022/03/23 04:55:38;;;;;;;32.47;12.80;;;;;;;1.77;62.03;101322.66;5148739;27;20075;-29
2022/03/23 04:58:03;;;;;;;29.52;10.07;;;;;;;1.81;62.19;101331.97;5148802;27;20027;-29
2022/03/23 05:00:29;;;;;;;18.00;6.65;;;;;;;1.90;62.46;101325.94;5148863;27;20030;-28
2022/03/23 05:02:54;;;;;;;9.82;5.15;;;;;;;2.01;62.14;101301.31;5148396;27;20053;-28
2022/03/23 05:05:20;;;;;;;9.55;4.38;;;;;;;2.27;60.99;101306.94;5148926;27;20228;-31
2022/03/23 05:07:45;;;;;;;11.90;5.10;;;;;;;2.64;59.73;101303.69;5148738;27;20034;-32
2022/03/23 05:10:12;;;;;;;12.77;4.72;;;;;;;2.64;59.68;101298.44;5149614;27;20486;-32
2022/03/23 05:12:40;;;;;;;9.82;4.80;;;;;;;2.70;60.83;101308.44;5133749;27;20029;-30
2022/03/23 05:15:06;;;;;;;11.45;4.68;;;;;;;2.89;60.33;101319.94;5133265;27;20172;-32
2022/03/23 05:17:32;;;;;;;10.45;4.25;;;;;;;2.96;60.53;101314.00;5133339;27;20038;-34
2022/03/23 05:19:58;;;;;;;19.75;6.70;;;;;;;3.33;60.21;101320.34;5152263;27;20084;-35
2022/03/23 05:22:24;;;;;;;7.50;3.92;;;;;;;3.37;59.82;101300.63;5152341;27;20547;-34
2022/03/23 05:24:49;;;;;;;9.15;3.78;;;;;;;3.67;59.32;101311.97;5151901;27;20060;-28
2022/03/23 05:27:15;;;;;;;8.77;3.60;;;;;;;3.96;57.72;101320.63;5152256;27;20029;-30
2022/03/23 05:29:41;;;;;;;8.90;3.60;;;;;;;4.25;57.20;101338.16;5152069;27;20790;-28
2022/03/23 05:32:06;;;;;;;13.90;3.72;;;;;;;4.40;57.10;101336.66;5151525;27;20050;-29
2022/03/23 05:34:33;;;;;;;10.30;3.88;;;;;;;4.54;56.86;101343.28;5152094;27;20506;-34
2022/03/23 05:36:58;;;;;;;13.52;3.92;;;;;;;4.52;56.27;101325.91;5133087;27;20141;-32
2022/03/23 05:39:23;;;;;;;8.35;3.90;;;;;;;4.87;56.17;101337.50;5152000;27;20546;-30
2022/03/23 05:41:49;;;;;;;12.27;4.10;;;;;;;4.63;56.72;101337.09;5151784;27;20030;-29
2022/03/23 05:44:14;;;;;;;9.15;4.32;;;;;;;4.48;59.00;101337.75;5152078;27;20455;-30
2022/03/23 05:46:40;;;;;;;11.00;4.32;;;;;;;4.42;59.41;101352.38;5132593;27;20121;-31
2022/03/23 05:49:05;;;;;;;9.77;4.00;;;;;;;4.63;58.79;101357.41;5151705;27;20023;-30
2022/03/23 05:51:31;;;;;;;8.20;3.95;;;;;;;4.83;58.22;101368.69;5152012;27;20474;-29
2022/03/23 05:53:56;;;;;;;7.85;3.65;;;;;;;4.87;58.82;101371.88;5151674;27;20823;-30
2022/03/23 05:56:22;;;;;;;9.80;5.18;;;;;;;4.62;58.29;101355.75;5151316;27;20031;-33
2022/03/23 05:58:48;;;;;;;7.70;3.92;;;;;;;4.11;58.80;101346.56;5151034;27;20478;-36
2022/03/23 06:01:13;;;;;;;13.65;5.85;;;;;;;4.18;58.28;101344.97;5151235;27;20052;-29
2022/03/23 06:03:39;;;;;;;9.70;4.38;;;;;;;4.46;57.00;101355.56;5151381;27;20023;-32
2022/03/23 06:06:04;;;;;;;12.60;4.72;;;;;;;4.61;58.31;101365.47;5151252;27;20058;-29
2022/03/23 06:08:30;;;;;;;8.15;4.63;;;;;;;4.82;57.46;101373.16;5151180;27;20051;-29
2022/03/23 06:10:55;;;;;;;13.02;5.10;;;;;;;4.87;57.20;101345.44;5150969;27;20064;-31
2022/03/23 06:13:21;;;;;;;10.63;4.60;;;;;;;5.04;57.30;101353.34;5151198;27;20026;-34
2022/03/23 06:15:46;;;;;;;11.52;5.07;;;;;;;5.17;55.33;101337.13;5132032;27;20478;-33
2022/03/23 06:18:12;;;;;;;12.07;5.20;;;;;;;5.20;55.09;101355.31;5150956;27;20030;-32
2022/03/23 06:20:38;;;;;;;10.98;4.90;;;;;;;5.61;54.20;101374.16;5150774;27;20102;-29
2022/03/23 06:23:03;;;;;;;11.25;5.03;;;;;;;5.86;54.93;101365.56;5150657;27;20027;-31
2022/03/23 06:25:29;;;;;;;11.60;5.47;;;;;;;5.91;53.07;101363.31;5150878;27;20039;-34
2022/03/23 06:27:55;;;;;;;10.07;5.28;;;;;;;5.74;53.30;101357.91;5132144;27;20052;-30
2022/03/23 06:30:20;;;;;;;14.68;5.72;;;;;;;5.83;53.65;101361.44;5150553;27;20553;-29
2022/03/23 06:32:46;;;;;;;18.15;8.75;;;;;;;6.09;52.75;101373.84;5150864;27;20053;-32
2022/03/23 06:35:11;;;;;;;13.30;7.25;;;;;;;6.04;51.48;101348.66;5150351;27;20054;-29
2022/03/23 06:37:37;;;;;;;10.95;5.30;;;;;;;6.00;53.62;101347.31;5150778;27;20073;-28
2022/03/23 06:40:04;;;;;;;9.38;4.93;;;;;;;6.34;53.17;101370.34;5150122;27;20026;-30
2022/03/23 06:42:30;;;;;;;11.63;6.30;;;;;;;6.19;52.67;101350.72;5131693;27;20827;-34
2022/03/23 06:44:56;;;;;;;16.00;6.72;;;;;;;6.22;54.14;101371.59;5150002;27;20061;-29
2022/03/23 06:47:22;;;;;;;14.23;6.15;;;;;;;6.08;53.05;101367.72;5150341;27;20675;-31
2022/03/23 06:49:48;;;;;;;11.85;5.82;;;;;;;6.43;54.00;101360.59;5131569;27;20113;-35
2022/03/23 06:52:15;;;;;;;11.57;5.75;;;;;;;6.26;51.42;101378.25;5150270;27;20178;-34
2022/03/23 06:54:40;;;;;;;10.30;6.43;;;;;;;6.40;52.09;101353.81;5150210;27;20031;-29
2022/03/23 06:57:06;;;;;;;12.15;6.38;;;;;;;6.78;52.34;101351.63;5150304;27;20402;-31
2022/03/23 06:59:31;;;;;;;11.32;6.22;;;;;;;6.70;51.24;101362.19;5150047;27;20431;-31
2022/03/23 07:01:57;;;;;;;12.10;5.30;;;;;;;6.72;51.41;101357.56;5150392;27;20105;-30
2022/03/23 07:04:25;;;;;;;13.05;6.40;;;;;;;6.86;50.98;101344.66;5150108;27;20026;-33
2022/03/23 07:06:51;;;;;;;10.57;5.90;;;;;;;7.00;48.83;101359.91;5150016;27;20027;-29
2022/03/23 07:09:32;;;;;;;13.27;5.57;;;;;;;7.33;49.47;101368.72;5131456;27;20029;-35
2022/03/23 07:11:59;;;;;;;10.13;5.05;;;;;;;7.06;48.01;101359.28;5131269;27;20023;-30
2022/03/23 07:14:29;;;;;;;9.38;5.10;;;;;;;7.20;48.94;101353.31;5131226;27;20022;-30
2022/03/23 07:16:54;;;;;;;10.13;5.47;;;;;;;7.51;47.99;101365.91;5131061;27;20129;-32
2022/03/23 07:19:20;;;;;;;10.30;5.15;;;;;;;7.51;48.22;101357.97;5131134;27;20117;-29
2022/03/23 07:21:46;;;;;;;8.15;4.55;;;;;;;7.40;48.51;101340.56;5149895;27;20406;-37
2022/03/23 07:24:11;;;;;;;9.32;5.80;;;;;;;7.83;47.79;101350.97;5149363;27;20493;-30
2022/03/23 07:26:37;;;;;;;12.10;5.90;;;;;;;7.85;48.43;101359.59;5149399;27;20022;-29
2022/03/23 07:29:03;;;;;;;11.80;5.57;;;;;;;7.53;48.88;101340.03;5149658;27;20498;-29
2022/03/23 07:31:28;;;;;;;12.27;7.03;;;;;;;8.07;48.75;101359.84;5149658;27;20026;-32
2022/03/23 07:33:54;;;;;;;11.15;5.80;;;;;;;8.33;47.44;101341.81;5148538;27;20049;-34
2022/03/23 07:36:20;;;;;;;11.20;5.47;;;;;;;8.33;47.58;101360.41;5149601;27;20413;-29
2022/03/23 07:38:45;;;;;;;8.82;4.07;;;;;;;8.60;44.98;101323.78;5149492;27;20085;-33
2022/03/23 07:41:10;;;;;;;16.65;9.95;;;;;;;9.25;42.22;101328.66;5149037;27;20105;-34
2022/03/23 07:43:36;;;;;;;8.07;4.38;;;;;;;9.44;41.65;101345.97;5149713;27;20406;-30
2022/03/23 07:46:02;;;;;;;16.52;7.93;;;;;;;9.60;41.49;101323.69;5130884;27;20038;-30
2022/03/23 07:48:27;;;;;;;8.25;3.80;;;;;;;9.56;40.92;101341.03;5149552;27;20763;-29
2022/03/23 07:50:53;;;;;;;11.70;4.32;;;;;;;9.63;38.99;101318.00;5149276;27;20025;-33
2022/03/23 07:53:19;;;;;;;10.77;5.43;;;;;;;10.09;40.24;101334.81;5149240;27;20040;-32
2022/03/23 07:55:45;;;;;;;30.50;18.48;;;;;;;10.33;39.52;101317.75;5149119;27;20102;-29
2022/03/23 07:58:11;;;;;;;39.58;23.02;;;;;;;10.78;36.64;101332.59;5130572;27;20054;-33
2022/03/23 08:00:38;;;;;;;34.25;19.58;;;;;;;10.81;33.16;101318.91;5130606;27;20098;-31
2022/03/23 08:03:04;;;;;;;47.15;26.83;;;;;;;10.44;32.92;101309.25;5147596;27;20071;-30
2022/03/23 08:05:31;;;;;;;42.60;24.98;;;;;;;10.80;32.33;101324.44;5130496;27;20037;-30
2022/03/23 08:07:57;;;;;;;27.38;18.08;;;;;;;11.04;32.27;101321.38;5130225;27;20030;-29
2022/03/23 08:10:22;;;;;;;14.35;10.52;;;;;;;11.41;31.37;101326.63;5148725;27;20169;-31
2022/03/23 08:12:48;;;;;;;9.82;5.00;;;;;;;11.37;30.86;101309.34;5149034;27;20045;-33
2022/03/23 08:15:14;;;;;;;10.15;6.07;;;;;;;11.62;29.44;101323.06;5148875;27;20102;-30
2022/03/23 08:17:39;;;;;;;10.43;7.30;;;;;;;12.08;30.67;101319.91;5149007;27;20403;-30
2022/03/23 08:22:54;;;;;;;12.77;7.75;;;;;;;12.18;29.33;101322.22;5148611;27;20030;-30
2022/03/23 08:25:19;;;;;;;7.40;3.00;;;;;;;11.98;29.56;101298.06;5130055;27;20031;-29
2022/03/23 08:27:45;;;;;;;8.40;4.00;;;;;;;12.01;30.56;101306.50;5148894;27;20513;-35
2022/03/23 08:30:11;;;;;;;5.32;2.50;;;;;;;12.09;32.17;101307.34;5130103;27;20026;-31
2022/03/23 08:32:36;;;;;;;6.45;3.45;;;;;;;12.37;30.75;101304.59;5129849;27;20438;-29
2022/03/23 08:35:02;;;;;;;8.80;4.05;;;;;;;12.48;29.50;101316.56;5148316;27;20027;-31
2022/03/23 08:37:29;;;;;;;5.55;2.85;;;;;;;12.32;29.23;101315.06;5148458;27;20027;-29
2022/03/23 08:39:55;;;;;;;8.98;3.22;;;;;;;12.38;29.76;101288.34;5130150;27;20057;-31
2022/03/23 08:42:21;;;;;;;8.45;3.33;;;;;;;12.73;29.29;101295.41;5148986;27;20839;-31
2022/03/23 08:44:46;;;;;;;8.02;3.20;;;;;;;12.82;29.25;101297.72;5150527;27;20509;-33
2022/03/23 08:47:12;;;;;;;7.68;3.60;;;;;;;12.74;29.05;101279.16;5133641;27;20034;-32
2022/03/23 08:49:38;;;;;;;5.90;2.47;;;;;;;12.85;28.83;101291.13;5152567;27;20026;-29
2022/03/23 08:52:04;;;;;;;7.80;3.22;;;;;;;12.94;28.33;101292.59;5133467;27;20057;-29
2022/03/23 08:54:30;;;;;;;5.97;2.85;;;;;;;13.34;26.54;101289.13;5152736;27;20113;-29
2022/03/23 08:56:55;;;;;;;7.63;3.33;;;;;;;13.10;27.71;101296.72;5133710;27;20458;-30
2022/03/23 08:59:21;;;;;;;8.05;3.20;;;;;;;12.92;27.62;101265.19;5133319;27;20076;-36
2022/03/23 09:01:47;;;;;;;9.95;3.67;;;;;;;12.97;26.88;101273.41;5152097;27;20027;-32
2022/03/23 09:04:13;;;;;;;9.48;4.50;;;;;;;13.44;26.92;101274.28;5152366;27;20692;-30
2022/03/23 09:06:38;;;;;;;9.27;3.90;;;;;;;13.46;26.90;101272.22;5151944;27;20031;-34
2022/03/23 09:09:04;;;;;;;6.75;3.15;;;;;;;13.64;27.05;101265.38;5152170;27;20414;-29
2022/03/23 09:11:29;;;;;;;6.47;3.38;;;;;;;13.55;26.48;101269.31;5152326;27;20037;-35
2022/03/23 09:13:55;;;;;;;7.40;3.65;;;;;;;13.83;26.13;101277.91;5152263;27;20026;-30
2022/03/23 09:16:20;;;;;;;8.48;3.70;;;;;;;14.12;26.36;101258.81;5152143;27;20030;-30
2022/03/23 09:18:46;;;;;;;8.13;3.22;;;;;;;13.74;28.27;101270.31;5133125;27;20548;-32
2022/03/23 09:21:13;;;;;;;11.23;3.97;;;;;;;13.75;27.79;101251.34;5151653;27;20035;-29
2022/03/23 09:23:40;;;;;;;6.87;3.53;;;;;;;13.79;26.46;101259.75;5152119;27;20054;-29
2022/03/23 09:26:08;;;;;;;6.78;3.50;;;;;;;13.63;27.36;101261.88;5133261;27;20259;-29
2022/03/23 09:28:34;;;;;;;6.47;2.90;;;;;;;13.72;27.63;101258.97;5152052;27;20466;-32
2022/03/23 09:30:59;;;;;;;6.78;2.72;;;;;;;13.65;27.89;101251.78;5132803;27;20268;-29
2022/03/23 09:33:25;;;;;;;9.38;3.90;;;;;;;13.34;27.57;101238.22;5151551;27;20051;-30
2022/03/23 09:35:51;;;;;;;7.72;3.28;;;;;;;13.39;26.46;101223.16;5151545;27;20087;-32
2022/03/23 09:38:16;;;;;;;5.93;3.10;;;;;;;13.63;25.73;101236.94;5152008;27;20035;-30
2022/03/23 09:40:46;;;;;;;5.43;3.00;;;;;;;13.78;25.56;101258.94;5133171;27;20482;-29
2022/03/23 09:43:12;;;;;;;6.18;3.40;;;;;;;13.94;25.22;101238.91;5133175;27;20034;-30
2022/03/23 09:48:10;;;;;;;7.13;3.38;;;;;;;14.26;25.05;101245.16;5151532;27;20026;-29
2022/03/23 09:50:42;;;;;;;5.82;2.70;;;;;;;13.90;25.44;101245.72;5151783;27;20014;-29
2022/03/23 09:53:09;;;;;;;7.15;3.00;;;;;;;14.05;24.98;101227.47;5151414;27;20022;-32
2022/03/23 09:55:36;;;;;;;5.32;2.58;;;;;;;13.81;26.60;101220.16;5150663;27;20045;-37
2022/03/23 09:58:03;;;;;;;6.28;2.67;;;;;;;14.41;26.05;101228.75;5132632;27;20045;-29
2022/03/23 10:00:37;;;;;;;6.90;3.63;;;;;;;14.86;24.08;101235.91;5132608;27;20030;-33
2022/03/23 10:03:11;;;;;;;15.82;8.32;;;;;;;14.93;24.49;101227.81;5151156;27;20031;-29
2022/03/23 10:06:01;;;;;;;6.50;3.00;;;;;;;14.64;26.42;101241.63;5151321;27;20031;-29
2022/03/23 10:08:54;;;;;;;7.72;3.22;;;;;;;15.46;24.54;101227.31;5151088;27;20027;-29
2022/03/23 10:11:38;;;;;;;7.72;4.53;;;;;;;15.02;23.89;101229.19;5151094;27;20035;-31
2022/03/23 10:14:41;;;;;;;7.43;3.35;;;;;;;15.40;25.83;101234.38;5151062;27;20031;-33
2022/03/23 10:17:44;;;;;;;6.80;3.50;;;;;;;15.35;25.11;101228.06;5150657;27;20026;-32
2022/03/23 10:20:13;;;;;;;7.25;3.17;;;;;;;15.26;23.75;101217.59;5151168;27;20049;-30
2022/03/23 10:22:47;;;;;;;7.65;3.30;;;;;;;15.56;24.95;101199.91;5132236;27;20034;-31
2022/03/23 10:25:13;;;;;;;6.28;3.60;;;;;;;15.29;26.73;101215.50;5131865;27;20038;-29
2022/03/23 10:27:39;;;;;;;8.25;3.08;;;;;;;15.59;23.52;101191.38;5131792;27;20034;-37
2022/03/23 10:30:06;;;;;;;5.38;2.72;;;;;;;15.62;24.13;101194.44;5150595;27;20505;-29
2022/03/23 10:32:42;;;;;;;8.10;2.90;;;;;;;15.48;22.22;101209.91;5128496;27;20066;-29
2022/03/23 10:35:16;;;;;;;8.75;3.33;;;;;;;15.59;23.05;101210.19;5129883;27;20114;-28
2022/03/23 10:37:43;;;;;;;6.88;3.38;;;;;;;15.80;22.91;101187.47;5128431;27;20507;-29
2022/03/23 10:40:14;;;;;;;7.00;3.05;;;;;;;16.72;21.92;101192.56;5128252;27;20107;-36
2022/03/23 10:42:42;;;;;;;6.03;2.65;;;;;;;16.58;21.65;101177.66;5128443;27;20104;-33
2022/03/23 10:45:09;;;;;;;;;;;;;;;16.31;22.26;101193.41;5128597;27;20038;-29
2022/03/23 10:47:36;;;;;;;5.60;2.80;;;;;;;16.48;21.54;101176.34;5129652;27;19912;-35
2022/03/23 10:50:14;;;;;;;5.72;2.63;;;;;;;17.22;22.39;101175.97;5128003;27;20035;-30
2022/03/23 10:53:01;;;;;;;5.28;2.92;;;;;;;17.13;22.22;101166.59;5128120;27;20027;-34
2022/03/23 10:55:29;;;;;;;4.50;2.57;;;;;;;16.81;22.88;101172.31;5129549;27;20035;-30
2022/03/23 10:58:00;;;;;;;6.18;2.53;;;;;;;16.53;21.38;101178.38;5128099;27;20024;-29
2022/03/23 11:00:30;;;;;;;7.07;3.28;;;;;;;17.17;21.79;101167.75;5129381;27;20529;-29
2022/03/23 11:02:57;;;;;;;7.38;3.22;;;;;;;17.63;18.46;101155.25;5127751;27;20572;-30
2022/03/23 11:05:37;;;;;;;4.93;2.50;;;;;;;17.71;20.08;101162.13;5127422;27;20147;-32
2022/03/23 11:08:12;;;;;;;7.78;2.80;;;;;;;17.00;18.24;101159.59;5127933;27;20495;-40
2022/03/23 11:16:16;;;;;;;4.40;2.30;;;;;;;17.29;20.29;101132.72;5129203;27;20045;-33
2022/03/23 11:18:42;;;;;;;5.40;2.60;;;;;;;17.63;18.57;101130.16;5127785;27;20091;-31
2022/03/23 11:21:08;;;;;;;7.65;2.53;;;;;;;17.86;18.74;101140.09;5128846;27;20028;-30
2022/03/23 11:23:37;;;;;;;6.93;2.60;;;;;;;17.99;16.49;101136.25;5127402;27;20027;-29
2022/03/23 11:26:07;;;;;;;6.18;2.95;;;;;;;18.04;17.52;101118.28;5127169;27;20033;-35
2022/03/23 11:28:45;;;;;;;5.78;2.38;;;;;;;18.07;17.04;101125.06;5127724;27;20379;-34
2022/03/23 11:31:15;;;;;;;5.53;2.60;;;;;;;18.26;18.78;101114.88;5128784;27;20019;-31
2022/03/23 11:33:44;;;;;;;5.80;2.65;;;;;;;18.71;17.42;101121.25;5145675;27;20051;-33
2022/03/23 11:36:11;;;;;;;5.45;2.40;;;;;;;18.33;17.02;101120.94;5149343;27;20026;-36
2022/03/23 11:38:39;;;;;;;6.68;2.55;;;;;;;18.28;17.39;101085.75;5130600;27;20043;-35
2022/03/23 11:41:06;;;;;;;6.93;2.60;;;;;;;17.93;17.47;101086.78;5130495;27;20521;-37
2022/03/23 11:43:37;;;;;;;5.82;2.65;;;;;;;18.44;18.05;101098.41;5130567;27;20038;-31
2022/03/23 11:46:04;;;;;;;4.57;2.17;;;;;;;18.26;17.60;101101.38;5130936;27;20034;-30